createdAt,value
2019-06-26T00:01:45.368Z,101744.41
2019-06-26T00:04:17.572Z,101741.22
2019-06-26T00:06:49.868Z,101741.80
2019-06-26T00:09:22.284Z,101739.50
2019-06-26T00:11:54.588Z,101744.66
2019-06-26T00:14:26.936Z,101753.75
2019-06-26T00:16:59.116Z,101753.00
2019-06-26T00:19:35.010Z,101753.03
2019-06-26T00:22:08.250Z,101756.16
2019-06-26T00:24:40.393Z,101755.31
2019-06-26T00:27:12.839Z,101757.25
2019-06-26T00:29:46.225Z,101748.47
2019-06-26T00:32:18.827Z,101757.62
2019-06-26T00:34:51.642Z,101756.14
2019-06-26T00:37:23.767Z,101752.61
2019-06-26T00:39:56.255Z,101755.05
2019-06-26T00:42:28.340Z,101759.13
2019-06-26T00:45:00.531Z,101760.00
2019-06-26T00:47:32.855Z,101757.52
2019-06-26T00:50:10.109Z,101760.95
2019-06-26T00:52:42.246Z,101762.77
2019-06-26T00:55:14.535Z,101758.10
2019-06-26T00:57:46.729Z,101757.90
2019-06-26T01:00:20.987Z,101752.51
2019-06-26T01:02:53.423Z,101750.47
2019-06-26T01:05:25.846Z,101757.62
2019-06-26T01:07:58.007Z,101756.72
2019-06-26T01:10:30.547Z,101757.77
2019-06-26T01:13:02.773Z,101758.30
2019-06-26T01:15:35.037Z,101757.81
2019-06-26T01:18:07.528Z,101760.77
2019-06-26T01:20:39.729Z,101763.38
2019-06-26T01:23:13.109Z,101770.55
2019-06-26T01:25:45.346Z,101775.45
2019-06-26T01:28:17.518Z,101770.56
2019-06-26T01:30:49.892Z,101768.20
2019-06-26T01:33:22.036Z,101768.91
2019-06-26T01:35:55.637Z,101765.22
2019-06-26T01:38:27.930Z,101771.00
2019-06-26T01:41:00.315Z,101765.14
2019-06-26T01:43:35.804Z,101771.27
2019-06-26T01:46:08.162Z,101778.95
2019-06-26T01:48:40.366Z,101772.39
2019-06-26T01:51:12.776Z,101778.35
2019-06-26T01:53:45.218Z,101780.20
2019-06-26T01:56:18.123Z,101773.09
2019-06-26T01:58:50.376Z,101771.43
2019-06-26T02:01:22.916Z,101775.50
2019-06-26T02:03:55.435Z,101773.45
2019-06-26T02:06:27.668Z,101773.49
2019-06-26T02:09:00.079Z,101775.85
2019-06-26T02:11:32.470Z,101770.95
2019-06-26T02:14:04.761Z,101779.91
2019-06-26T02:16:38.651Z,101779.56
2019-06-26T02:19:14.899Z,101778.05
2019-06-26T02:21:47.057Z,101775.85
2019-06-26T02:24:20.287Z,101780.26
2019-06-26T02:26:53.612Z,101778.36
2019-06-26T02:29:26.028Z,101783.93
2019-06-26T02:31:58.358Z,101784.73
2019-06-26T02:34:30.570Z,101786.58
2019-06-26T02:37:02.802Z,101788.57
2019-06-26T02:39:36.351Z,101785.66
2019-06-26T02:42:08.742Z,101791.58
2019-06-26T02:44:53.159Z,101794.28
2019-06-26T02:47:20.091Z,101794.23
2019-06-26T02:49:48.559Z,101790.97
2019-06-26T02:52:20.773Z,101786.68
2019-06-26T02:54:53.229Z,101794.23
2019-06-26T02:57:25.595Z,101794.43
2019-06-26T02:59:58.048Z,101792.44
2019-06-26T03:02:30.539Z,101789.73
2019-06-26T03:05:03.189Z,101786.14
2019-06-26T03:07:35.630Z,101792.05
2019-06-26T03:10:09.204Z,101793.73
2019-06-26T03:12:41.189Z,101797.11
2019-06-26T03:15:14.118Z,101790.82
2019-06-26T03:17:55.411Z,101794.73
2019-06-26T03:20:23.079Z,101795.47
2019-06-26T03:22:55.343Z,101797.25
2019-06-26T03:25:33.213Z,101789.69
2019-06-26T03:28:08.214Z,101790.92
2019-06-26T03:30:40.426Z,101792.59
2019-06-26T03:33:14.269Z,101780.44
2019-06-26T03:35:46.377Z,101788.22
2019-06-26T03:38:20.009Z,101796.08
2019-06-26T03:40:52.374Z,101792.61
2019-06-26T03:43:24.526Z,101791.44
2019-06-26T03:45:56.660Z,101793.30
2019-06-26T03:48:30.565Z,101788.19
2019-06-26T03:51:02.730Z,101791.27
2019-06-26T03:53:34.905Z,101788.12
2019-06-26T03:56:07.278Z,101786.13
2019-06-26T03:58:39.978Z,101789.09
2019-06-26T04:01:12.377Z,101786.91
2019-06-26T04:03:44.587Z,101786.74
2019-06-26T04:06:17.780Z,101784.50
2019-06-26T04:08:49.971Z,101795.02
2019-06-26T04:11:23.458Z,101797.47
2019-06-26T04:13:55.822Z,101784.98
2019-06-26T04:16:28.070Z,101791.92
2019-06-26T04:19:00.296Z,101793.80
2019-06-26T04:21:32.723Z,101786.69
2019-06-26T04:24:04.966Z,101791.98
2019-06-26T04:26:39.159Z,101797.56
2019-06-26T04:29:12.243Z,101793.16
2019-06-26T04:31:45.984Z,101796.81
2019-06-26T04:34:18.376Z,101792.94
2019-06-26T04:36:50.885Z,101795.91
2019-06-26T04:39:23.206Z,101795.39
2019-06-26T04:41:55.578Z,101797.66
2019-06-26T04:44:27.861Z,101797.01
2019-06-26T04:47:00.139Z,101804.07
2019-06-26T04:49:32.548Z,101805.99
2019-06-26T04:52:05.010Z,101809.70
2019-06-26T04:54:37.403Z,101798.77
2019-06-26T04:57:09.711Z,101801.11
2019-06-26T04:59:41.951Z,101804.25
2019-06-26T05:02:15.083Z,101807.75
2019-06-26T05:04:47.145Z,101812.30
2019-06-26T05:07:19.538Z,101812.42
2019-06-26T05:09:55.340Z,101811.86
2019-06-26T05:12:28.596Z,101813.78
2019-06-26T05:15:02.321Z,101813.05
2019-06-26T05:17:35.624Z,101813.59
2019-06-26T05:20:08.664Z,101817.64
2019-06-26T05:22:41.921Z,101811.17
2019-06-26T05:25:16.295Z,101811.05
2019-06-26T05:27:49.879Z,101815.96
2019-06-26T05:30:22.095Z,101811.92
2019-06-26T05:32:54.616Z,101815.57
2019-06-26T05:35:29.012Z,101824.62
2019-06-26T05:38:01.128Z,101814.28
2019-06-26T05:40:33.273Z,101813.84
2019-06-26T05:43:05.626Z,101819.08
2019-06-26T05:45:37.950Z,101819.08
2019-06-26T05:48:10.199Z,101820.00
2019-06-26T05:50:43.993Z,101815.34
2019-06-26T05:53:17.032Z,101813.19
2019-06-26T05:55:49.868Z,101811.11
2019-06-26T05:58:23.073Z,101816.47
2019-06-26T06:00:56.328Z,101815.20
2019-06-26T06:03:28.739Z,101818.33
2019-06-26T06:06:00.921Z,101821.91
2019-06-26T06:08:32.963Z,101818.17
2019-06-26T06:11:05.293Z,101811.89
2019-06-26T06:13:37.471Z,101819.23
2019-06-26T06:16:10.135Z,101817.59
2019-06-26T06:18:42.620Z,101813.30
2019-06-26T06:21:15.971Z,101810.20
2019-06-26T06:23:48.406Z,101810.16
2019-06-26T06:26:20.863Z,101813.77
2019-06-26T06:28:55.156Z,101806.33
2019-06-26T06:31:29.165Z,101808.98
2019-06-26T06:34:01.374Z,101810.36
2019-06-26T06:36:33.922Z,101807.73
2019-06-26T06:39:06.891Z,101803.61
2019-06-26T06:41:38.962Z,101811.79
2019-06-26T06:44:11.125Z,101803.66
2019-06-26T06:46:44.906Z,101803.82
2019-06-26T06:49:16.946Z,101803.66
2019-06-26T06:51:50.156Z,101798.06
2019-06-26T06:54:23.253Z,101797.66
2019-06-26T06:56:55.939Z,101797.66
2019-06-26T06:59:29.036Z,101799.11
2019-06-26T07:02:01.485Z,101792.95
2019-06-26T07:04:34.526Z,101784.94
2019-06-26T07:07:06.612Z,101790.05
2019-06-26T07:09:38.857Z,101799.87
2019-06-26T07:12:11.935Z,101792.06
2019-06-26T07:14:46.432Z,101787.19
2019-06-26T07:17:20.965Z,101790.02
2019-06-26T07:19:55.236Z,101787.47
2019-06-26T07:22:26.551Z,101782.84
2019-06-26T07:25:01.032Z,101789.05
2019-06-26T07:27:34.466Z,101784.55
2019-06-26T07:30:08.455Z,101780.91
2019-06-26T07:32:39.928Z,101774.39
2019-06-26T07:35:13.856Z,101775.23
2019-06-26T07:37:46.724Z,101785.30
2019-06-26T07:40:19.814Z,101788.80
2019-06-26T07:42:53.384Z,101788.48
2019-06-26T07:45:25.608Z,101777.28
2019-06-26T07:47:58.070Z,101778.42
2019-06-26T07:50:32.699Z,101779.73
2019-06-26T07:53:06.563Z,101778.37
2019-06-26T07:55:40.598Z,101775.72
2019-06-26T07:58:13.456Z,101780.89
2019-06-26T08:00:45.744Z,101774.15
2019-06-26T08:03:18.562Z,101784.38
2019-06-26T08:05:52.778Z,101776.68
2019-06-26T08:08:26.510Z,101777.53
2019-06-26T08:11:07.707Z,101772.52
2019-06-26T08:13:41.050Z,101772.63
2019-06-26T08:16:14.055Z,101763.70
2019-06-26T08:18:47.569Z,101767.11
2019-06-26T08:21:20.529Z,101765.86
2019-06-26T08:23:56.980Z,101764.86
2019-06-26T08:26:30.114Z,101759.69
2019-06-26T08:29:05.657Z,101759.88
2019-06-26T08:31:38.556Z,101754.06
2019-06-26T08:34:10.692Z,101756.50
2019-06-26T08:36:43.068Z,101753.69
2019-06-26T08:39:15.878Z,101749.14
2019-06-26T08:41:49.784Z,101756.25
2019-06-26T08:44:22.354Z,101753.35
2019-06-26T08:46:54.468Z,101748.59
2019-06-26T08:49:28.339Z,101745.84
2019-06-26T08:51:59.929Z,101741.79
2019-06-26T08:54:34.005Z,101732.38
2019-06-26T08:57:09.890Z,101737.82
2019-06-26T08:59:42.759Z,101731.41
2019-06-26T09:02:15.724Z,101726.62
2019-06-26T09:04:49.296Z,101729.68
2019-06-26T09:07:21.569Z,101724.60
2019-06-26T09:09:53.667Z,101720.28
2019-06-26T09:12:27.007Z,101724.73
2019-06-26T09:15:00.346Z,101728.44
2019-06-26T09:17:33.872Z,101714.53
2019-06-26T09:20:08.223Z,101721.52
2019-06-26T09:22:43.405Z,101717.59
2019-06-26T09:25:22.010Z,101710.16
2019-06-26T09:27:52.589Z,101713.98
2019-06-26T09:30:26.500Z,101712.74
2019-06-26T09:33:01.952Z,101711.47
2019-06-26T09:35:36.247Z,101714.28
2019-06-26T09:38:09.079Z,101700.23
2019-06-26T09:40:43.454Z,101690.48
2019-06-26T09:43:17.607Z,101694.05
2019-06-26T09:45:53.834Z,101688.81
2019-06-26T09:48:26.266Z,101681.92
2019-06-26T09:50:58.679Z,101698.66
2019-06-26T09:53:46.074Z,101691.96
2019-06-26T09:56:07.657Z,101690.44
2019-06-26T09:58:41.097Z,101690.44
2019-06-26T10:01:13.772Z,101679.80
2019-06-26T10:03:47.078Z,101684.72
2019-06-26T10:06:19.113Z,101679.48
2019-06-26T10:08:54.041Z,101679.31
2019-06-26T10:11:26.836Z,101682.52
2019-06-26T10:13:59.213Z,101682.52
2019-06-26T10:16:33.286Z,101673.30
2019-06-26T10:19:10.663Z,101673.30
2019-06-26T10:21:42.317Z,101676.63
2019-06-26T10:24:17.897Z,101676.42
2019-06-26T10:26:51.914Z,101665.80
2019-06-26T10:29:25.504Z,101668.59
2019-06-26T10:32:00.578Z,101681.39
2019-06-26T10:34:34.763Z,101669.47
2019-06-26T10:37:08.014Z,101665.94
2019-06-26T10:39:40.400Z,101659.39
2019-06-26T10:42:13.859Z,101651.91
2019-06-26T10:44:46.267Z,101653.14
2019-06-26T10:47:20.801Z,101642.58
2019-06-26T10:49:54.719Z,101650.09
2019-06-26T10:52:27.766Z,101652.01
2019-06-26T10:55:01.186Z,101656.44
2019-06-26T10:57:36.356Z,101647.31
2019-06-26T11:00:11.093Z,101630.62
2019-06-26T11:02:45.826Z,101630.22
2019-06-26T11:05:19.290Z,101642.91
2019-06-26T11:07:51.831Z,101643.59
2019-06-26T11:10:24.155Z,101638.77
2019-06-26T11:12:58.501Z,101628.84
2019-06-26T11:15:30.875Z,101630.13
2019-06-26T11:18:04.930Z,101638.97
2019-06-26T11:20:38.305Z,101625.48
2019-06-26T11:23:12.233Z,101616.84
2019-06-26T11:25:44.813Z,101614.23
2019-06-26T11:28:17.374Z,101616.23
2019-06-26T11:30:52.010Z,101611.97
2019-06-26T11:33:24.368Z,101618.23
2019-06-26T11:35:58.719Z,101615.59
2019-06-26T11:38:31.046Z,101619.55
2019-06-26T11:41:04.449Z,101610.19
2019-06-26T11:43:38.935Z,101599.66
2019-06-26T11:46:12.073Z,101606.67
2019-06-26T11:48:46.034Z,101603.51
2019-06-26T11:51:20.188Z,101593.55
2019-06-26T11:53:52.418Z,101592.13
2019-06-26T11:56:24.725Z,101590.97
2019-06-26T11:58:57.057Z,101599.47
2019-06-26T12:01:30.136Z,101604.73
2019-06-26T12:04:08.188Z,101589.96
2019-06-26T12:06:58.989Z,101588.33
2019-06-26T12:09:49.102Z,101585.78
2019-06-26T12:12:21.643Z,101579.56
2019-06-26T12:14:55.228Z,101571.74
2019-06-26T12:17:45.663Z,101575.54
2019-06-26T12:20:19.957Z,101574.53
2019-06-26T12:23:08.832Z,101565.30
2019-06-26T12:25:58.118Z,101567.80
2019-06-26T12:28:31.251Z,101558.00
2019-06-26T12:31:04.259Z,101566.13
2019-06-26T12:33:37.519Z,101551.11
2019-06-26T12:36:27.531Z,101546.61
2019-06-26T12:39:17.164Z,101543.88
2019-06-26T12:41:49.920Z,101539.47
2019-06-26T12:44:25.519Z,101538.86
2019-06-26T12:47:14.248Z,101535.09
2019-06-26T12:50:03.511Z,101529.13
2019-06-26T12:52:52.258Z,101530.69
2019-06-26T12:55:24.566Z,101530.48
2019-06-26T12:58:19.448Z,101526.98
2019-06-26T13:00:48.114Z,101514.63
2019-06-26T13:03:36.452Z,101516.14
2019-06-26T13:06:11.895Z,101510.10
2019-06-26T13:08:47.180Z,101507.78
2019-06-26T13:11:20.059Z,101507.26
2019-06-26T13:14:02.015Z,101503.61
2019-06-26T13:16:26.466Z,101513.31
2019-06-26T13:19:00.029Z,101501.60
2019-06-26T13:21:32.946Z,101500.85
2019-06-26T13:24:05.756Z,101497.05
2019-06-26T13:26:39.329Z,101489.86
2019-06-26T13:29:12.065Z,101493.66
2019-06-26T13:31:44.681Z,101483.87
2019-06-26T13:34:18.994Z,101487.53
2019-06-26T13:36:54.525Z,101493.94
2019-06-26T13:39:26.768Z,101484.41
2019-06-26T13:41:58.975Z,101472.23
2019-06-26T13:44:33.532Z,101468.68
2019-06-26T13:47:07.729Z,101465.67
2019-06-26T13:49:39.778Z,101461.27
2019-06-26T13:52:11.782Z,101453.25
2019-06-26T13:54:44.187Z,101449.25
2019-06-26T13:57:18.299Z,101448.50
2019-06-26T13:59:53.012Z,101441.41
2019-06-26T14:02:25.136Z,101442.59
2019-06-26T14:04:57.816Z,101441.17
2019-06-26T14:07:30.403Z,101430.48
2019-06-26T14:10:03.008Z,101430.97
2019-06-26T14:12:37.533Z,101432.23
2019-06-26T14:15:10.797Z,101430.44
2019-06-26T14:17:43.077Z,101427.15
2019-06-26T14:20:15.263Z,101418.84
2019-06-26T14:22:48.434Z,101419.86
2019-06-26T14:25:19.738Z,101417.89
2019-06-26T14:27:52.277Z,101414.47
2019-06-26T14:30:27.655Z,101404.36
2019-06-26T14:32:58.242Z,101412.70
2019-06-26T14:35:30.375Z,101403.34
2019-06-26T14:38:03.678Z,101394.44
2019-06-26T14:40:36.148Z,101398.10
2019-06-26T14:43:08.318Z,101401.02
2019-06-26T14:45:40.587Z,101395.33
2019-06-26T14:48:12.969Z,101394.48
2019-06-26T14:50:45.256Z,101389.92
2019-06-26T14:53:18.333Z,101390.72
2019-06-26T14:55:50.445Z,101386.25
2019-06-26T14:58:22.615Z,101375.51
2019-06-26T15:00:54.591Z,101381.16
2019-06-26T15:03:26.725Z,101387.59
2019-06-26T15:06:12.289Z,101385.01
2019-06-26T15:08:32.923Z,101384.88
2019-06-26T15:11:05.451Z,101393.74
2019-06-26T15:13:43.416Z,101392.34
2019-06-26T15:16:16.747Z,101387.91
2019-06-26T15:18:54.825Z,101383.95
2019-06-26T15:21:29.145Z,101382.56
2019-06-26T15:24:02.369Z,101383.28
2019-06-26T15:26:36.052Z,101371.09
2019-06-26T15:29:09.938Z,101364.98
2019-06-26T15:31:42.211Z,101359.25
2019-06-26T15:34:16.529Z,101359.25
2019-06-26T15:36:50.941Z,101360.62
2019-06-26T15:39:30.716Z,101360.62
2019-06-26T15:42:18.529Z,101365.27
2019-06-26T15:45:13.393Z,101345.67
2019-06-26T15:47:48.683Z,101345.67
2019-06-26T15:50:22.890Z,101354.55
2019-06-26T15:52:55.095Z,101358.42
2019-06-26T15:55:27.378Z,101355.37
2019-06-26T15:58:00.808Z,101350.73
2019-06-26T16:00:32.799Z,101350.73
2019-06-26T16:03:05.885Z,101347.45
2019-06-26T16:05:37.973Z,101347.29
2019-06-26T16:08:11.766Z,101345.75
2019-06-26T16:10:44.642Z,101345.05
2019-06-26T16:13:16.818Z,101344.27
2019-06-26T16:15:49.243Z,101343.48
2019-06-26T16:18:33.118Z,101335.47
2019-06-26T16:21:06.433Z,101339.36
2019-06-26T16:23:38.530Z,101336.66
2019-06-26T16:26:11.031Z,101336.52
2019-06-26T16:28:43.318Z,101336.52
2019-06-26T16:31:16.048Z,101340.25
2019-06-26T16:33:48.284Z,101330.30
2019-06-26T16:36:22.387Z,101325.73
2019-06-26T16:38:56.040Z,101338.68
2019-06-26T16:41:30.374Z,101337.53
2019-06-26T16:44:02.752Z,101340.40
2019-06-26T16:46:35.223Z,101329.95
2019-06-26T16:49:08.781Z,101333.59
2019-06-26T16:51:40.990Z,101334.39
2019-06-26T16:54:13.205Z,101331.56
2019-06-26T16:56:45.339Z,101331.23
2019-06-26T16:59:18.639Z,101330.48
2019-06-26T17:01:50.738Z,101332.63
2019-06-26T17:04:22.871Z,101329.28
2019-06-26T17:06:55.055Z,101325.24
2019-06-26T17:09:27.220Z,101321.69
2019-06-26T17:11:59.706Z,101321.28
2019-06-26T17:14:32.382Z,101323.11
2019-06-26T17:17:11.593Z,101326.61
2019-06-26T17:19:43.931Z,101325.75
2019-06-26T17:22:16.659Z,101321.66
2019-06-26T17:24:49.377Z,101322.13
2019-06-26T17:27:22.011Z,101321.30
2019-06-26T17:29:54.544Z,101318.82
2019-06-26T17:32:27.083Z,101316.69
2019-06-26T17:34:59.583Z,101323.84
2019-06-26T17:37:32.032Z,101323.55
2019-06-26T17:40:04.685Z,101326.93
2019-06-26T17:42:38.090Z,101325.92
2019-06-26T17:45:11.277Z,101321.01
2019-06-26T17:47:43.469Z,101322.73
2019-06-26T17:50:17.805Z,101325.12
2019-06-26T17:52:50.048Z,101320.00
2019-06-26T17:55:22.561Z,101322.66
2019-06-26T17:57:55.085Z,101326.92
2019-06-26T18:00:36.006Z,101316.27
2019-06-26T18:03:08.212Z,101324.02
2019-06-26T18:05:42.161Z,101324.12
2019-06-26T18:08:14.471Z,101326.52
2019-06-26T18:10:48.050Z,101323.89
2019-06-26T18:13:20.438Z,101320.84
2019-06-26T18:15:53.456Z,101327.09
2019-06-26T18:18:26.005Z,101324.65
2019-06-26T18:21:00.468Z,101325.44
2019-06-26T18:23:37.994Z,101326.14
2019-06-26T18:26:13.098Z,101322.73
2019-06-26T18:28:40.103Z,101320.22
2019-06-26T18:31:12.469Z,101323.71
2019-06-26T18:33:45.909Z,101322.55
2019-06-26T18:36:18.888Z,101325.23
2019-06-26T18:38:51.463Z,101321.70
2019-06-26T18:41:24.211Z,101318.86
2019-06-26T18:43:57.403Z,101318.70
2019-06-26T18:46:29.730Z,101320.02
2019-06-26T18:49:02.244Z,101322.98
2019-06-26T18:51:34.582Z,101314.28
2019-06-26T18:54:06.943Z,101310.30
2019-06-26T18:56:39.995Z,101304.80
2019-06-26T18:59:13.832Z,101311.13
2019-06-26T19:01:46.205Z,101313.92
2019-06-26T19:04:20.122Z,101311.45
2019-06-26T19:06:52.694Z,101312.31
2019-06-26T19:09:25.858Z,101303.57
2019-06-26T19:11:58.741Z,101307.50
2019-06-26T19:14:31.695Z,101302.30
2019-06-26T19:17:03.934Z,101300.08
2019-06-26T19:19:36.492Z,101302.30
2019-06-26T19:22:09.001Z,101300.20
2019-06-26T19:24:41.709Z,101289.20
2019-06-26T19:27:14.158Z,101293.95
2019-06-26T19:29:47.914Z,101288.80
2019-06-26T19:32:20.896Z,101294.58
2019-06-26T19:34:54.874Z,101291.52
2019-06-26T19:37:27.098Z,101290.73
2019-06-26T19:40:00.495Z,101294.16
2019-06-26T19:42:33.513Z,101291.20
2019-06-26T19:45:12.512Z,101296.26
2019-06-26T19:47:44.891Z,101293.05
2019-06-26T19:50:18.511Z,101291.10
2019-06-26T19:52:51.397Z,101289.85
2019-06-26T19:55:24.684Z,101293.01
2019-06-26T19:57:57.872Z,101290.71
2019-06-26T20:00:33.613Z,101294.05
2019-06-26T20:03:05.926Z,101292.17
2019-06-26T20:05:40.724Z,101289.88
2019-06-26T20:08:13.116Z,101289.78
2019-06-26T20:10:46.492Z,101291.27
2019-06-26T20:13:19.045Z,101289.06
2019-06-26T20:15:52.294Z,101292.73
2019-06-26T20:18:24.968Z,101286.99
2019-06-26T20:20:58.919Z,101289.80
2019-06-26T20:23:33.667Z,101287.20
2019-06-26T20:26:07.606Z,101276.05
2019-06-26T20:28:41.771Z,101273.76
2019-06-26T20:31:13.581Z,101274.98
2019-06-26T20:33:45.871Z,101284.41
2019-06-26T20:36:18.507Z,101285.67
2019-06-26T20:38:50.748Z,101275.20
2019-06-26T20:41:23.330Z,101280.53
2019-06-26T20:43:58.771Z,101284.28
2019-06-26T20:46:32.413Z,101277.58
2019-06-26T20:49:04.865Z,101274.28
2019-06-26T20:51:37.276Z,101266.34
2019-06-26T20:54:09.546Z,101268.92
2019-06-26T20:56:42.116Z,101270.99
2019-06-26T20:59:14.771Z,101264.02
2019-06-26T21:01:48.899Z,101265.23
2019-06-26T21:04:23.058Z,101264.33
2019-06-26T21:06:59.085Z,101262.34
2019-06-26T21:09:31.812Z,101264.08
2019-06-26T21:12:05.578Z,101263.49
2019-06-26T21:14:42.525Z,101263.59
2019-06-26T21:17:18.327Z,101262.98
2019-06-26T21:19:54.409Z,101266.35
2019-06-26T21:22:27.269Z,101268.17
2019-06-26T21:25:16.881Z,101265.95
2019-06-26T21:27:35.695Z,101266.36
2019-06-26T21:30:11.091Z,101261.05
2019-06-26T21:32:43.785Z,101255.70
2019-06-26T21:35:16.905Z,101262.94
2019-06-26T21:37:50.399Z,101270.55
2019-06-26T21:40:24.319Z,101261.05
2019-06-26T21:42:56.897Z,101254.01
2019-06-26T21:45:31.381Z,101251.34
2019-06-26T21:48:08.367Z,101256.84
2019-06-26T21:50:43.437Z,101248.02
2019-06-26T21:53:22.465Z,101246.61
2019-06-26T21:56:15.301Z,101243.87
2019-06-26T21:59:06.586Z,101244.86
2019-06-26T22:02:01.391Z,101245.98
2019-06-26T22:04:52.441Z,101242.30
2019-06-26T22:07:37.333Z,101236.30
2019-06-26T22:10:18.094Z,101236.03
2019-06-26T22:12:51.476Z,101233.72
2019-06-26T22:15:23.997Z,101237.48
2019-06-26T22:17:56.793Z,101228.02
2019-06-26T22:20:29.332Z,101236.36
2019-06-26T22:23:01.695Z,101230.04
2019-06-26T22:25:49.864Z,101230.52
2019-06-26T22:28:08.633Z,101230.06
2019-06-26T22:30:41.272Z,101225.03
2019-06-26T22:33:13.683Z,101222.97
2019-06-26T22:35:46.802Z,101227.25
2019-06-26T22:38:19.418Z,101221.10
2019-06-26T22:40:51.760Z,101220.77
2019-06-26T22:43:25.312Z,101221.16
2019-06-26T22:45:57.590Z,101214.77
2019-06-26T22:48:32.426Z,101215.77
2019-06-26T22:51:05.873Z,101213.89
2019-06-26T22:53:38.137Z,101209.44
2019-06-26T22:56:10.563Z,101206.52
2019-06-26T22:58:43.042Z,101201.19
2019-06-26T23:01:15.899Z,101190.15
2019-06-26T23:03:48.452Z,101190.94
2019-06-26T23:06:20.981Z,101190.61
2019-06-26T23:08:54.236Z,101186.09
2019-06-26T23:11:28.036Z,101184.05
2019-06-26T23:14:00.482Z,101183.76
2019-06-26T23:16:33.113Z,101187.19
2019-06-26T23:19:05.336Z,101186.30
2019-06-26T23:21:37.863Z,101182.33
2019-06-26T23:24:10.405Z,101178.47
2019-06-26T23:26:42.891Z,101187.37
2019-06-26T23:29:15.460Z,101178.27
2019-06-26T23:31:48.132Z,101177.55
2019-06-26T23:34:20.591Z,101178.80
2019-06-26T23:36:53.384Z,101178.63
2019-06-26T23:39:25.974Z,101172.29
2019-06-26T23:41:58.490Z,101162.48
2019-06-26T23:44:31.034Z,101155.98
2019-06-26T23:47:03.606Z,101153.47
2019-06-26T23:49:37.115Z,101151.02
2019-06-26T23:52:09.631Z,101144.63
2019-06-26T23:54:42.497Z,101142.37
2019-06-26T23:57:14.779Z,101144.29
2019-06-26T23:59:47.421Z,101141.48
